createdAt,value
2022-10-17T00:02:19.393Z,11.15
2022-10-17T00:07:22.453Z,11.17
2022-10-17T00:12:24.996Z,11.15
2022-10-17T00:17:26.907Z,11.07
2022-10-17T00:22:30.288Z,10.99
2022-10-17T00:27:34.903Z,10.91
2022-10-17T00:32:36.617Z,10.90
2022-10-17T00:37:39.987Z,10.91
2022-10-17T00:42:41.953Z,11.01
2022-10-17T00:47:48.661Z,11.01
2022-10-17T00:52:52.481Z,11.02
2022-10-17T00:57:54.141Z,10.99
2022-10-17T01:02:56.207Z,10.96
2022-10-17T01:07:59.865Z,10.89
2022-10-17T01:13:11.874Z,10.78
2022-10-17T01:18:26.495Z,10.77
2022-10-17T01:24:01.270Z,10.60
2022-10-17T01:29:27.207Z,10.38
2022-10-17T01:34:34.317Z,10.30
2022-10-17T01:39:45.427Z,10.18
2022-10-17T01:44:55.328Z,10.04
2022-10-17T01:50:02.579Z,10.02
2022-10-17T01:55:08.034Z,9.89
2022-10-17T02:00:14.450Z,9.77
2022-10-17T02:05:20.745Z,9.79
2022-10-17T02:10:31.215Z,9.77
2022-10-17T02:15:51.951Z,9.76
2022-10-17T02:21:00.516Z,9.75
2022-10-17T02:26:09.975Z,9.92
2022-10-17T02:31:16.998Z,10.07
2022-10-17T02:36:23.736Z,10.17
2022-10-17T02:41:26.442Z,10.29
2022-10-17T02:46:29.347Z,10.26
2022-10-17T02:51:39.915Z,10.30
2022-10-17T02:56:46.680Z,10.43
2022-10-17T03:01:50.560Z,10.52
2022-10-17T03:06:54.076Z,10.63
2022-10-17T03:11:56.213Z,10.75
2022-10-17T03:16:58.303Z,10.88
2022-10-17T03:22:01.664Z,10.91
2022-10-17T03:27:04.037Z,10.93
2022-10-17T03:32:06.353Z,10.96
2022-10-17T03:37:09.696Z,10.96
2022-10-17T03:42:11.712Z,10.97
2022-10-17T03:47:14.277Z,11.02
2022-10-17T03:52:17.416Z,11.02
2022-10-17T03:57:19.809Z,10.98
2022-10-17T04:02:21.781Z,10.97
2022-10-17T04:12:27.007Z,10.68
2022-10-17T04:17:32.379Z,10.55
2022-10-17T04:22:39.420Z,10.50
2022-10-17T04:27:41.866Z,10.39
2022-10-17T04:32:43.559Z,10.28
2022-10-17T04:37:46.800Z,10.30
2022-10-17T04:42:49.113Z,10.24
2022-10-17T04:47:51.118Z,10.09
2022-10-17T04:52:54.407Z,10.04
2022-10-17T04:57:56.427Z,9.97
2022-10-17T05:02:58.325Z,9.93
2022-10-17T05:08:01.692Z,9.87
2022-10-17T05:13:03.895Z,9.85
2022-10-17T05:18:07.319Z,9.86
2022-10-17T05:23:10.844Z,9.79
2022-10-17T05:28:12.939Z,9.73
2022-10-17T05:33:14.923Z,9.71
2022-10-17T05:38:18.263Z,9.76
2022-10-17T05:43:20.312Z,9.75
2022-10-17T05:48:22.961Z,9.79
2022-10-17T05:53:26.309Z,9.84
2022-10-17T06:03:50.731Z,10.19
2022-10-17T06:08:53.816Z,10.59
2022-10-17T06:13:55.877Z,11.07
2022-10-17T06:18:57.507Z,11.68
2022-10-17T06:24:01.020Z,11.92
2022-10-17T06:29:03.211Z,12.13
2022-10-17T06:34:05.112Z,12.29
2022-10-17T06:39:08.742Z,12.45
2022-10-17T06:44:10.824Z,12.59
2022-10-17T06:49:13.144Z,12.75
2022-10-17T06:54:16.668Z,12.88
2022-10-17T06:59:18.667Z,13.04
2022-10-17T07:04:20.467Z,13.11
2022-10-17T07:09:23.650Z,13.19
2022-10-17T07:14:26.091Z,13.27
2022-10-17T07:19:28.137Z,13.40
2022-10-17T07:24:31.519Z,13.57
2022-10-17T07:29:33.814Z,13.80
2022-10-17T07:34:36.015Z,14.05
2022-10-17T07:39:39.664Z,14.31
2022-10-17T07:44:41.887Z,14.60
2022-10-17T07:49:43.912Z,14.87
2022-10-17T07:54:46.889Z,15.13
2022-10-17T07:59:49.122Z,15.48
2022-10-17T08:04:51.083Z,15.78
2022-10-17T08:09:54.403Z,16.22
2022-10-17T08:14:57.329Z,16.51
2022-10-17T08:19:59.701Z,16.60
2022-10-17T08:25:03.291Z,16.86
2022-10-17T08:30:06.854Z,17.15
2022-10-17T08:35:09.144Z,17.45
2022-10-17T08:40:21.491Z,17.74
2022-10-17T08:45:33.237Z,18.00
2022-10-17T08:50:37.960Z,18.26
2022-10-17T08:55:45.684Z,18.57
2022-10-17T09:00:56.320Z,18.88
2022-10-17T09:06:12.653Z,19.16
2022-10-17T09:11:27.884Z,19.33
2022-10-17T09:16:54.996Z,19.48
2022-10-17T09:22:00.557Z,19.74
2022-10-17T09:27:04.558Z,20.17
2022-10-17T09:32:14.120Z,20.45
2022-10-17T09:37:17.521Z,20.56
2022-10-17T09:42:24.917Z,20.66
2022-10-17T09:47:34.522Z,21.20
2022-10-17T09:52:42.444Z,22.15
2022-10-17T09:57:57.731Z,26.47
2022-10-17T10:03:15.213Z,27.79
2022-10-17T10:08:19.794Z,28.25
2022-10-17T10:13:26.645Z,27.25
2022-10-17T10:18:32.578Z,25.87
2022-10-17T10:23:35.336Z,24.54
2022-10-17T10:28:38.943Z,26.40
2022-10-17T10:33:46.999Z,30.21
2022-10-17T10:38:55.032Z,27.94
2022-10-17T10:43:58.448Z,28.89
2022-10-17T10:49:02.612Z,29.39
2022-10-17T10:54:11.998Z,28.13
2022-10-17T10:59:20.952Z,30.18
2022-10-17T11:04:31.777Z,29.82
2022-10-17T11:09:45.091Z,26.12
2022-10-17T11:14:54.075Z,25.08
2022-10-17T11:20:09.859Z,24.67
2022-10-17T11:25:22.423Z,24.69
2022-10-17T11:30:33.580Z,24.47
2022-10-17T11:35:40.873Z,25.00
2022-10-17T11:40:45.882Z,24.94
2022-10-17T11:45:53.202Z,24.82
2022-10-17T11:56:34.841Z,25.15
2022-10-17T12:01:44.083Z,25.13
2022-10-17T12:06:56.957Z,25.26
2022-10-17T12:12:02.458Z,25.61
2022-10-17T12:17:20.946Z,25.76
2022-10-17T12:22:26.037Z,25.84
2022-10-17T12:27:36.082Z,25.96
2022-10-17T12:33:05.542Z,25.55
2022-10-17T12:38:24.664Z,25.42
2022-10-17T12:43:46.948Z,25.74
2022-10-17T12:49:05.036Z,25.97
2022-10-17T12:54:12.780Z,25.51
2022-10-17T12:59:17.875Z,25.49
2022-10-17T13:04:21.773Z,25.39
2022-10-17T13:09:27.354Z,25.55
2022-10-17T13:14:31.806Z,25.42
2022-10-17T13:19:43.148Z,25.47
2022-10-17T13:24:45.519Z,25.53
2022-10-17T13:29:47.250Z,25.65
2022-10-17T13:35:10.789Z,25.44
2022-10-17T13:40:44.181Z,25.58
2022-10-17T13:45:45.864Z,25.76
2022-10-17T13:50:51.831Z,25.61
2022-10-17T13:56:15.696Z,25.71
2022-10-17T14:01:21.602Z,25.69
2022-10-17T14:06:26.436Z,25.90
2022-10-17T14:11:33.895Z,25.92
2022-10-17T14:16:39.278Z,26.04
2022-10-17T14:21:44.706Z,26.11
2022-10-17T14:26:47.999Z,25.53
2022-10-17T14:31:50.492Z,25.40
2022-10-17T14:36:54.940Z,25.48
2022-10-17T14:42:00.748Z,25.42
2022-10-17T14:47:42.198Z,24.83
2022-10-17T14:52:32.476Z,24.64
2022-10-17T14:57:43.148Z,24.57
2022-10-17T15:02:45.822Z,24.50
2022-10-17T15:07:49.475Z,24.28
2022-10-17T15:12:58.780Z,24.12
2022-10-17T15:18:02.501Z,24.01
2022-10-17T15:23:05.860Z,23.92
2022-10-17T15:28:07.835Z,23.76
2022-10-17T15:33:09.767Z,23.52
2022-10-17T15:38:18.258Z,23.22
2022-10-17T15:43:20.410Z,22.91
2022-10-17T15:48:28.342Z,22.61
2022-10-17T15:53:31.850Z,22.41
2022-10-17T15:58:37.411Z,22.12
2022-10-17T16:03:39.976Z,21.80
2022-10-17T16:08:43.336Z,21.56
2022-10-17T16:13:51.088Z,21.32
2022-10-17T16:18:53.215Z,21.15
2022-10-17T16:23:57.215Z,20.91
2022-10-17T16:28:59.473Z,20.69
2022-10-17T16:34:03.480Z,20.41
2022-10-17T16:39:06.956Z,20.15
2022-10-17T16:44:12.427Z,19.94
2022-10-17T16:49:14.478Z,19.85
2022-10-17T16:54:18.136Z,19.72
2022-10-17T16:59:20.207Z,19.61
2022-10-17T17:04:22.616Z,19.45
2022-10-17T17:09:26.241Z,19.26
2022-10-17T17:14:28.549Z,19.33
2022-10-17T17:19:30.293Z,19.24
2022-10-17T17:24:33.767Z,19.65
2022-10-17T17:29:35.549Z,19.91
2022-10-17T17:34:37.707Z,19.86
2022-10-17T17:39:41.098Z,19.60
2022-10-17T17:44:43.358Z,19.36
2022-10-17T17:49:45.476Z,19.09
2022-10-17T17:54:48.783Z,18.78
2022-10-17T17:59:50.720Z,18.72
2022-10-17T18:04:52.554Z,18.63
2022-10-17T18:09:55.726Z,18.48
2022-10-17T18:14:57.423Z,18.38
2022-10-17T18:19:59.094Z,18.22
2022-10-17T18:25:02.342Z,18.05
2022-10-17T18:30:04.875Z,17.88
2022-10-17T18:35:07.383Z,17.65
2022-10-17T18:40:11.393Z,17.44
2022-10-17T18:45:13.389Z,17.26
2022-10-17T18:50:15.459Z,17.13
2022-10-17T18:55:19.146Z,16.85
2022-10-17T19:00:21.088Z,16.67
2022-10-17T19:05:23.112Z,16.55
2022-10-17T19:10:26.353Z,16.46
2022-10-17T19:15:28.401Z,16.40
2022-10-17T19:20:30.611Z,16.31
2022-10-17T19:25:34.739Z,16.22
2022-10-17T19:30:36.449Z,16.35
2022-10-17T19:35:38.279Z,16.25
2022-10-17T19:40:41.878Z,16.03
2022-10-17T19:45:43.842Z,15.85
2022-10-17T19:50:45.522Z,15.65
2022-10-17T19:55:48.502Z,15.51
2022-10-17T20:00:52.194Z,15.24
2022-10-17T20:05:54.727Z,15.28
2022-10-17T20:11:02.408Z,15.23
2022-10-17T20:16:06.184Z,15.15
2022-10-17T20:21:09.743Z,15.06
2022-10-17T20:31:37.530Z,14.92
2022-10-17T20:36:39.414Z,14.85
2022-10-17T20:41:43.756Z,14.73
2022-10-17T20:47:00.807Z,14.58
2022-10-17T20:52:04.051Z,14.57
2022-10-17T20:57:07.327Z,14.47
2022-10-17T21:02:11.994Z,14.46
2022-10-17T21:07:13.941Z,14.49
2022-10-17T21:12:25.978Z,14.44
2022-10-17T21:17:39.100Z,14.35
2022-10-17T21:22:40.719Z,14.33
2022-10-17T21:27:43.760Z,14.24
2022-10-17T21:32:53.862Z,14.20
2022-10-17T21:37:56.058Z,14.12
2022-10-17T21:42:59.134Z,14.08
2022-10-17T21:48:12.643Z,13.98
2022-10-17T21:53:15.629Z,13.91
2022-10-17T21:58:19.852Z,13.88
2022-10-17T22:03:21.684Z,13.79
2022-10-17T22:08:23.464Z,13.78
2022-10-17T22:13:26.647Z,13.74
2022-10-17T22:18:28.787Z,13.80
2022-10-17T22:23:30.977Z,13.87
2022-10-17T22:28:34.788Z,13.89
2022-10-17T22:33:38.048Z,13.92
2022-10-17T22:38:40.199Z,13.89
2022-10-17T22:43:43.710Z,13.94
2022-10-17T22:48:46.016Z,13.86
2022-10-17T22:53:47.970Z,13.83
2022-10-17T22:58:52.109Z,13.83
2022-10-17T23:03:54.130Z,13.84
2022-10-17T23:08:56.207Z,13.84
2022-10-17T23:13:59.161Z,13.91
2022-10-17T23:19:01.261Z,13.93
2022-10-17T23:24:02.909Z,13.98
2022-10-17T23:29:06.027Z,14.07
2022-10-17T23:34:08.229Z,14.16
2022-10-17T23:39:11.600Z,14.17
2022-10-17T23:44:15.236Z,14.27
2022-10-17T23:49:17.158Z,14.33
2022-10-17T23:54:19.172Z,14.39
2022-10-17T23:59:22.716Z,14.50
